sensor_id;sensor_type;location;lat;lon;timestamp;pressure;altitude;pressure_sealevel;temperature
71463;BMP180;59266;52.608;13.260;2023-08-12T00:00:39;101625.00;;;16.40
71463;BMP180;59266;52.608;13.260;2023-08-12T00:03:05;101622.00;;;16.40
71463;BMP180;59266;52.608;13.260;2023-08-12T00:05:32;101623.00;;;16.40
71463;BMP180;59266;52.608;13.260;2023-08-12T00:07:59;101628.00;;;16.30
71463;BMP180;59266;52.608;13.260;2023-08-12T00:10:26;101624.00;;;16.40
71463;BMP180;59266;52.608;13.260;2023-08-12T00:12:52;101624.00;;;16.40
71463;BMP180;59266;52.608;13.260;2023-08-12T00:15:19;101618.00;;;16.40
71463;BMP180;59266;52.608;13.260;2023-08-12T00:17:45;101618.00;;;16.40
71463;BMP180;59266;52.608;13.260;2023-08-12T00:20:13;101627.00;;;16.30
71463;BMP180;59266;52.608;13.260;2023-08-12T00:22:40;101622.00;;;16.30
71463;BMP180;59266;52.608;13.260;2023-08-12T00:25:07;101621.00;;;16.30
71463;BMP180;59266;52.608;13.260;2023-08-12T00:27:34;101626.00;;;16.30
71463;BMP180;59266;52.608;13.260;2023-08-12T00:30:01;101617.00;;;16.30
71463;BMP180;59266;52.608;13.260;2023-08-12T00:32:28;101604.00;;;16.20
71463;BMP180;59266;52.608;13.260;2023-08-12T00:34:55;101613.00;;;16.30
71463;BMP180;59266;52.608;13.260;2023-08-12T00:37:22;101608.00;;;16.30
71463;BMP180;59266;52.608;13.260;2023-08-12T00:39:48;101605.00;;;16.30
71463;BMP180;59266;52.608;13.260;2023-08-12T00:42:15;101607.00;;;16.40
71463;BMP180;59266;52.608;13.260;2023-08-12T00:44:42;101600.00;;;16.40
71463;BMP180;59266;52.608;13.260;2023-08-12T00:47:08;101597.00;;;16.30
71463;BMP180;59266;52.608;13.260;2023-08-12T00:49:36;101596.00;;;16.40
71463;BMP180;59266;52.608;13.260;2023-08-12T00:52:04;101592.00;;;16.40
71463;BMP180;59266;52.608;13.260;2023-08-12T00:54:30;101592.00;;;16.40
71463;BMP180;59266;52.608;13.260;2023-08-12T00:56:57;101582.00;;;16.40
71463;BMP180;59266;52.608;13.260;2023-08-12T00:59:25;101572.00;;;16.40
71463;BMP180;59266;52.608;13.260;2023-08-12T01:01:52;101570.00;;;16.40
71463;BMP180;59266;52.608;13.260;2023-08-12T01:04:18;101569.00;;;16.40
71463;BMP180;59266;52.608;13.260;2023-08-12T01:06:45;101563.00;;;16.40
71463;BMP180;59266;52.608;13.260;2023-08-12T01:09:12;101565.00;;;16.40
71463;BMP180;59266;52.608;13.260;2023-08-12T01:11:48;101564.00;;;16.40
71463;BMP180;59266;52.608;13.260;2023-08-12T01:14:25;101559.00;;;16.40
71463;BMP180;59266;52.608;13.260;2023-08-12T01:16:57;101560.00;;;16.30
71463;BMP180;59266;52.608;13.260;2023-08-12T01:19:39;101567.00;;;16.30
71463;BMP180;59266;52.608;13.260;2023-08-12T01:22:09;101561.00;;;16.20
71463;BMP180;59266;52.608;13.260;2023-08-12T01:24:37;101564.00;;;16.20
71463;BMP180;59266;52.608;13.260;2023-08-12T01:27:05;101558.00;;;16.10
71463;BMP180;59266;52.608;13.260;2023-08-12T01:29:33;101558.00;;;16.10
71463;BMP180;59266;52.608;13.260;2023-08-12T01:34:58;101548.00;;;16.10
71463;BMP180;59266;52.608;13.260;2023-08-12T01:37:29;101546.00;;;16.10
71463;BMP180;59266;52.608;13.260;2023-08-12T01:39:56;101537.00;;;16.10
71463;BMP180;59266;52.608;13.260;2023-08-12T01:42:27;101539.00;;;16.20
71463;BMP180;59266;52.608;13.260;2023-08-12T01:44:55;101542.00;;;16.20
71463;BMP180;59266;52.608;13.260;2023-08-12T01:47:22;101540.00;;;16.20
71463;BMP180;59266;52.608;13.260;2023-08-12T01:49:48;101545.00;;;16.20
71463;BMP180;59266;52.608;13.260;2023-08-12T01:52:15;101539.00;;;16.00
71463;BMP180;59266;52.608;13.260;2023-08-12T01:54:42;101535.00;;;16.00
71463;BMP180;59266;52.608;13.260;2023-08-12T01:57:08;101538.00;;;16.10
71463;BMP180;59266;52.608;13.260;2023-08-12T01:59:36;101526.00;;;16.10
71463;BMP180;59266;52.608;13.260;2023-08-12T02:02:03;101520.00;;;16.10
71463;BMP180;59266;52.608;13.260;2023-08-12T02:04:29;101511.00;;;16.10
71463;BMP180;59266;52.608;13.260;2023-08-12T02:06:56;101510.00;;;16.10
71463;BMP180;59266;52.608;13.260;2023-08-12T02:09:23;101515.00;;;16.20
71463;BMP180;59266;52.608;13.260;2023-08-12T02:11:50;101516.00;;;16.20
71463;BMP180;59266;52.608;13.260;2023-08-12T02:14:16;101519.00;;;16.30
71463;BMP180;59266;52.608;13.260;2023-08-12T02:16:43;101514.00;;;16.30
71463;BMP180;59266;52.608;13.260;2023-08-12T02:19:10;101510.00;;;16.30
71463;BMP180;59266;52.608;13.260;2023-08-12T02:21:36;101505.00;;;16.30
71463;BMP180;59266;52.608;13.260;2023-08-12T02:24:03;101505.00;;;16.30
71463;BMP180;59266;52.608;13.260;2023-08-12T02:26:29;101498.00;;;16.30
71463;BMP180;59266;52.608;13.260;2023-08-12T02:28:56;101492.00;;;16.40
71463;BMP180;59266;52.608;13.260;2023-08-12T02:31:23;101494.00;;;16.40
71463;BMP180;59266;52.608;13.260;2023-08-12T02:33:50;101490.00;;;16.40
71463;BMP180;59266;52.608;13.260;2023-08-12T02:36:16;101489.00;;;16.40
71463;BMP180;59266;52.608;13.260;2023-08-12T02:38:43;101490.00;;;16.40
71463;BMP180;59266;52.608;13.260;2023-08-12T02:41:10;101486.00;;;16.40
71463;BMP180;59266;52.608;13.260;2023-08-12T02:43:37;101472.00;;;16.40
71463;BMP180;59266;52.608;13.260;2023-08-12T02:46:03;101481.00;;;16.40
71463;BMP180;59266;52.608;13.260;2023-08-12T02:48:30;101475.00;;;16.40
71463;BMP180;59266;52.608;13.260;2023-08-12T02:50:56;101485.00;;;16.40
71463;BMP180;59266;52.608;13.260;2023-08-12T02:53:23;101467.00;;;16.40
71463;BMP180;59266;52.608;13.260;2023-08-12T02:55:50;101471.00;;;16.40
71463;BMP180;59266;52.608;13.260;2023-08-12T02:58:16;101479.00;;;16.40
71463;BMP180;59266;52.608;13.260;2023-08-12T03:00:43;101472.00;;;16.40
71463;BMP180;59266;52.608;13.260;2023-08-12T03:03:12;101481.00;;;16.40
71463;BMP180;59266;52.608;13.260;2023-08-12T03:05:39;101473.00;;;16.40
71463;BMP180;59266;52.608;13.260;2023-08-12T03:08:07;101476.00;;;16.40
71463;BMP180;59266;52.608;13.260;2023-08-12T03:10:34;101471.00;;;16.40
71463;BMP180;59266;52.608;13.260;2023-08-12T03:13:00;101466.00;;;16.40
71463;BMP180;59266;52.608;13.260;2023-08-12T03:15:27;101471.00;;;16.40
71463;BMP180;59266;52.608;13.260;2023-08-12T03:17:55;101459.00;;;16.40
71463;BMP180;59266;52.608;13.260;2023-08-12T03:20:22;101456.00;;;16.40
71463;BMP180;59266;52.608;13.260;2023-08-12T03:22:49;101458.00;;;16.40
71463;BMP180;59266;52.608;13.260;2023-08-12T03:25:15;101447.00;;;16.30
71463;BMP180;59266;52.608;13.260;2023-08-12T03:27:42;101449.00;;;16.30
71463;BMP180;59266;52.608;13.260;2023-08-12T03:30:09;101451.00;;;16.30
71463;BMP180;59266;52.608;13.260;2023-08-12T03:32:37;101450.00;;;16.20
71463;BMP180;59266;52.608;13.260;2023-08-12T03:35:04;101441.00;;;16.20
71463;BMP180;59266;52.608;13.260;2023-08-12T03:37:31;101437.00;;;16.30
71463;BMP180;59266;52.608;13.260;2023-08-12T03:39:57;101442.00;;;16.20
71463;BMP180;59266;52.608;13.260;2023-08-12T03:42:24;101448.00;;;16.20
71463;BMP180;59266;52.608;13.260;2023-08-12T03:44:51;101452.00;;;16.20
71463;BMP180;59266;52.608;13.260;2023-08-12T03:47:17;101442.00;;;16.20
71463;BMP180;59266;52.608;13.260;2023-08-12T03:49:48;101438.00;;;16.20
71463;BMP180;59266;52.608;13.260;2023-08-12T03:52:14;101444.00;;;16.30
71463;BMP180;59266;52.608;13.260;2023-08-12T03:54:42;101434.00;;;16.20
71463;BMP180;59266;52.608;13.260;2023-08-12T03:57:09;101436.00;;;16.20
71463;BMP180;59266;52.608;13.260;2023-08-12T03:59:36;101429.00;;;16.20
71463;BMP180;59266;52.608;13.260;2023-08-12T04:02:02;101430.00;;;16.20
71463;BMP180;59266;52.608;13.260;2023-08-12T04:04:30;101420.00;;;16.20
71463;BMP180;59266;52.608;13.260;2023-08-12T04:06:57;101414.00;;;16.10
71463;BMP180;59266;52.608;13.260;2023-08-12T04:09:23;101420.00;;;16.20
71463;BMP180;59266;52.608;13.260;2023-08-12T04:11:50;101414.00;;;16.20
71463;BMP180;59266;52.608;13.260;2023-08-12T04:14:17;101416.00;;;16.20
71463;BMP180;59266;52.608;13.260;2023-08-12T04:16:43;101416.00;;;16.20
71463;BMP180;59266;52.608;13.260;2023-08-12T04:19:10;101412.00;;;16.20
71463;BMP180;59266;52.608;13.260;2023-08-12T04:21:36;101410.00;;;16.20
71463;BMP180;59266;52.608;13.260;2023-08-12T04:24:03;101410.00;;;16.20
71463;BMP180;59266;52.608;13.260;2023-08-12T04:26:30;101402.00;;;16.40
71463;BMP180;59266;52.608;13.260;2023-08-12T04:28:57;101401.00;;;16.40
71463;BMP180;59266;52.608;13.260;2023-08-12T04:31:23;101397.00;;;16.40
71463;BMP180;59266;52.608;13.260;2023-08-12T04:33:50;101392.00;;;16.40
71463;BMP180;59266;52.608;13.260;2023-08-12T04:36:19;101405.00;;;16.50
71463;BMP180;59266;52.608;13.260;2023-08-12T04:38:46;101392.00;;;16.50
71463;BMP180;59266;52.608;13.260;2023-08-12T04:41:13;101404.00;;;16.60
71463;BMP180;59266;52.608;13.260;2023-08-12T04:43:39;101410.00;;;16.60
71463;BMP180;59266;52.608;13.260;2023-08-12T04:46:06;101409.00;;;16.60
71463;BMP180;59266;52.608;13.260;2023-08-12T04:48:33;101404.00;;;16.80
71463;BMP180;59266;52.608;13.260;2023-08-12T04:50:59;101400.00;;;16.90
71463;BMP180;59266;52.608;13.260;2023-08-12T04:53:28;101408.00;;;17.10
71463;BMP180;59266;52.608;13.260;2023-08-12T04:55:55;101399.00;;;17.20
71463;BMP180;59266;52.608;13.260;2023-08-12T04:58:22;101413.00;;;17.30
71463;BMP180;59266;52.608;13.260;2023-08-12T05:00:49;101403.00;;;17.40
71463;BMP180;59266;52.608;13.260;2023-08-12T05:03:16;101395.00;;;17.60
71463;BMP180;59266;52.608;13.260;2023-08-12T05:05:43;101397.00;;;17.70
71463;BMP180;59266;52.608;13.260;2023-08-12T05:08:09;101396.00;;;18.00
71463;BMP180;59266;52.608;13.260;2023-08-12T05:10:36;101396.00;;;18.20
71463;BMP180;59266;52.608;13.260;2023-08-12T05:13:03;101393.00;;;18.40
71463;BMP180;59266;52.608;13.260;2023-08-12T05:15:29;101386.00;;;18.60
71463;BMP180;59266;52.608;13.260;2023-08-12T05:17:56;101383.00;;;18.90
71463;BMP180;59266;52.608;13.260;2023-08-12T05:20:22;101376.00;;;19.10
71463;BMP180;59266;52.608;13.260;2023-08-12T05:22:49;101377.00;;;19.30
71463;BMP180;59266;52.608;13.260;2023-08-12T05:25:16;101378.00;;;19.50
71463;BMP180;59266;52.608;13.260;2023-08-12T05:27:42;101385.00;;;19.70
71463;BMP180;59266;52.608;13.260;2023-08-12T05:30:09;101382.00;;;19.70
71463;BMP180;59266;52.608;13.260;2023-08-12T05:32:36;101376.00;;;19.80
71463;BMP180;59266;52.608;13.260;2023-08-12T05:35:03;101376.00;;;20.00
71463;BMP180;59266;52.608;13.260;2023-08-12T05:37:29;101386.00;;;20.00
71463;BMP180;59266;52.608;13.260;2023-08-12T05:39:56;101381.00;;;20.10
71463;BMP180;59266;52.608;13.260;2023-08-12T05:42:22;101384.00;;;20.10
71463;BMP180;59266;52.608;13.260;2023-08-12T05:44:49;101369.00;;;20.10
71463;BMP180;59266;52.608;13.260;2023-08-12T05:47:16;101377.00;;;20.30
71463;BMP180;59266;52.608;13.260;2023-08-12T05:49:42;101386.00;;;20.30
71463;BMP180;59266;52.608;13.260;2023-08-12T05:52:09;101377.00;;;20.50
71463;BMP180;59266;52.608;13.260;2023-08-12T05:54:37;101378.00;;;20.60
71463;BMP180;59266;52.608;13.260;2023-08-12T05:57:03;101379.00;;;20.70
71463;BMP180;59266;52.608;13.260;2023-08-12T05:59:30;101374.00;;;21.00
71463;BMP180;59266;52.608;13.260;2023-08-12T06:01:57;101379.00;;;21.10
71463;BMP180;59266;52.608;13.260;2023-08-12T06:04:25;101389.00;;;21.40
71463;BMP180;59266;52.608;13.260;2023-08-12T06:06:52;101383.00;;;21.60
71463;BMP180;59266;52.608;13.260;2023-08-12T06:09:18;101379.00;;;22.00
71463;BMP180;59266;52.608;13.260;2023-08-12T06:11:45;101386.00;;;22.30
71463;BMP180;59266;52.608;13.260;2023-08-12T06:14:11;101384.00;;;22.20
71463;BMP180;59266;52.608;13.260;2023-08-12T06:16:38;101372.00;;;22.60
71463;BMP180;59266;52.608;13.260;2023-08-12T06:19:04;101378.00;;;24.20
71463;BMP180;59266;52.608;13.260;2023-08-12T06:21:31;101374.00;;;25.80
71463;BMP180;59266;52.608;13.260;2023-08-12T06:23:58;101377.00;;;25.60
71463;BMP180;59266;52.608;13.260;2023-08-12T06:26:24;101370.00;;;25.10
71463;BMP180;59266;52.608;13.260;2023-08-12T06:28:51;101379.00;;;24.50
71463;BMP180;59266;52.608;13.260;2023-08-12T06:31:18;101370.00;;;24.40
71463;BMP180;59266;52.608;13.260;2023-08-12T06:33:48;101372.00;;;24.60
71463;BMP180;59266;52.608;13.260;2023-08-12T06:36:14;101368.00;;;24.50
71463;BMP180;59266;52.608;13.260;2023-08-12T06:38:41;101369.00;;;24.40
71463;BMP180;59266;52.608;13.260;2023-08-12T06:41:08;101360.00;;;25.00
71463;BMP180;59266;52.608;13.260;2023-08-12T06:43:34;101347.00;;;26.70
71463;BMP180;59266;52.608;13.260;2023-08-12T06:46:01;101347.00;;;27.90
71463;BMP180;59266;52.608;13.260;2023-08-12T06:48:28;101342.00;;;30.80
71463;BMP180;59266;52.608;13.260;2023-08-12T06:50:56;101357.00;;;32.00
71463;BMP180;59266;52.608;13.260;2023-08-12T06:53:25;101357.00;;;32.50
71463;BMP180;59266;52.608;13.260;2023-08-12T06:55:52;101359.00;;;32.30
71463;BMP180;59266;52.608;13.260;2023-08-12T06:58:18;101370.00;;;31.00
71463;BMP180;59266;52.608;13.260;2023-08-12T07:00:46;101367.00;;;28.20
71463;BMP180;59266;52.608;13.260;2023-08-12T07:03:13;101368.00;;;28.10
71463;BMP180;59266;52.608;13.260;2023-08-12T07:05:40;101365.00;;;28.20
71463;BMP180;59266;52.608;13.260;2023-08-12T07:08:06;101366.00;;;27.30
71463;BMP180;59266;52.608;13.260;2023-08-12T07:10:33;101359.00;;;27.10
71463;BMP180;59266;52.608;13.260;2023-08-12T07:12:59;101348.00;;;27.60
71463;BMP180;59266;52.608;13.260;2023-08-12T07:15:26;101345.00;;;28.60
71463;BMP180;59266;52.608;13.260;2023-08-12T07:17:53;101344.00;;;31.10
71463;BMP180;59266;52.608;13.260;2023-08-12T07:20:19;101343.00;;;31.40
71463;BMP180;59266;52.608;13.260;2023-08-12T07:22:46;101329.00;;;32.10
71463;BMP180;59266;52.608;13.260;2023-08-12T07:25:13;101325.00;;;34.10
71463;BMP180;59266;52.608;13.260;2023-08-12T07:27:39;101329.00;;;34.50
71463;BMP180;59266;52.608;13.260;2023-08-12T07:30:07;101347.00;;;34.90
71463;BMP180;59266;52.608;13.260;2023-08-12T07:32:37;101350.00;;;32.30
71463;BMP180;59266;52.608;13.260;2023-08-12T07:35:04;101349.00;;;33.50
71463;BMP180;59266;52.608;13.260;2023-08-12T07:37:32;101359.00;;;31.90
71463;BMP180;59266;52.608;13.260;2023-08-12T07:39:59;101362.00;;;32.10
71463;BMP180;59266;52.608;13.260;2023-08-12T07:42:25;101355.00;;;31.00
71463;BMP180;59266;52.608;13.260;2023-08-12T07:44:52;101364.00;;;31.50
71463;BMP180;59266;52.608;13.260;2023-08-12T07:47:19;101362.00;;;30.90
71463;BMP180;59266;52.608;13.260;2023-08-12T07:49:46;101369.00;;;29.60
71463;BMP180;59266;52.608;13.260;2023-08-12T07:52:12;101368.00;;;30.10
71463;BMP180;59266;52.608;13.260;2023-08-12T07:54:39;101369.00;;;28.80
71463;BMP180;59266;52.608;13.260;2023-08-12T07:57:06;101363.00;;;28.30
71463;BMP180;59266;52.608;13.260;2023-08-12T07:59:33;101367.00;;;28.30
71463;BMP180;59266;52.608;13.260;2023-08-12T08:01:59;101363.00;;;27.60
71463;BMP180;59266;52.608;13.260;2023-08-12T08:04:26;101363.00;;;27.30
71463;BMP180;59266;52.608;13.260;2023-08-12T08:06:53;101361.00;;;27.20
71463;BMP180;59266;52.608;13.260;2023-08-12T08:09:20;101362.00;;;27.00
71463;BMP180;59266;52.608;13.260;2023-08-12T08:11:46;101368.00;;;27.00
71463;BMP180;59266;52.608;13.260;2023-08-12T08:14:15;101370.00;;;27.00
71463;BMP180;59266;52.608;13.260;2023-08-12T08:16:42;101367.00;;;27.20
71463;BMP180;59266;52.608;13.260;2023-08-12T08:19:08;101368.00;;;27.20
71463;BMP180;59266;52.608;13.260;2023-08-12T08:21:39;101370.00;;;27.10
71463;BMP180;59266;52.608;13.260;2023-08-12T08:24:06;101377.00;;;26.80
71463;BMP180;59266;52.608;13.260;2023-08-12T08:26:33;101369.00;;;26.50
71463;BMP180;59266;52.608;13.260;2023-08-12T08:28:59;101366.00;;;26.00
71463;BMP180;59266;52.608;13.260;2023-08-12T08:31:26;101372.00;;;25.90
71463;BMP180;59266;52.608;13.260;2023-08-12T08:33:52;101370.00;;;26.30
71463;BMP180;59266;52.608;13.260;2023-08-12T08:36:19;101373.00;;;26.30
71463;BMP180;59266;52.608;13.260;2023-08-12T08:38:46;101373.00;;;26.20
71463;BMP180;59266;52.608;13.260;2023-08-12T08:41:13;101371.00;;;26.10
71463;BMP180;59266;52.608;13.260;2023-08-12T08:43:44;101371.00;;;26.00
71463;BMP180;59266;52.608;13.260;2023-08-12T08:46:14;101372.00;;;25.90
71463;BMP180;59266;52.608;13.260;2023-08-12T09:10:47;101321.00;;;25.50
71463;BMP180;59266;52.608;13.260;2023-08-12T09:13:37;101328.00;;;25.90
71463;BMP180;59266;52.608;13.260;2023-08-12T09:16:03;101341.00;;;26.20
71463;BMP180;59266;52.608;13.260;2023-08-12T09:18:30;101345.00;;;26.30
71463;BMP180;59266;52.608;13.260;2023-08-12T09:21:01;101350.00;;;26.40
71463;BMP180;59266;52.608;13.260;2023-08-12T09:23:28;101350.00;;;26.50
71463;BMP180;59266;52.608;13.260;2023-08-12T09:26:01;101336.00;;;26.20
71463;BMP180;59266;52.608;13.260;2023-08-12T09:28:28;101332.00;;;26.30
71463;BMP180;59266;52.608;13.260;2023-08-12T09:30:55;101361.00;;;26.70
71463;BMP180;59266;52.608;13.260;2023-08-12T09:33:26;101359.00;;;26.40
71463;BMP180;59266;52.608;13.260;2023-08-12T09:35:53;101351.00;;;26.30
71463;BMP180;59266;52.608;13.260;2023-08-12T09:38:21;101359.00;;;26.60
71463;BMP180;59266;52.608;13.260;2023-08-12T09:40:48;101348.00;;;26.50
71463;BMP180;59266;52.608;13.260;2023-08-12T09:43:15;101334.00;;;26.40
71463;BMP180;59266;52.608;13.260;2023-08-12T09:45:44;101325.00;;;26.50
71463;BMP180;59266;52.608;13.260;2023-08-12T09:48:12;101310.00;;;26.80
71463;BMP180;59266;52.608;13.260;2023-08-12T09:50:43;101303.00;;;27.30
71463;BMP180;59266;52.608;13.260;2023-08-12T09:53:09;101314.00;;;27.40
71463;BMP180;59266;52.608;13.260;2023-08-12T09:55:38;101321.00;;;27.20
71463;BMP180;59266;52.608;13.260;2023-08-12T09:58:06;101312.00;;;27.10
71463;BMP180;59266;52.608;13.260;2023-08-12T10:00:35;101328.00;;;27.00
71463;BMP180;59266;52.608;13.260;2023-08-12T10:03:03;101317.00;;;26.70
71463;BMP180;59266;52.608;13.260;2023-08-12T10:05:32;101319.00;;;26.40
71463;BMP180;59266;52.608;13.260;2023-08-12T10:07:59;101326.00;;;26.20
71463;BMP180;59266;52.608;13.260;2023-08-12T10:10:28;101320.00;;;26.10
71463;BMP180;59266;52.608;13.260;2023-08-12T10:12:56;101317.00;;;25.90
71463;BMP180;59266;52.608;13.260;2023-08-12T10:15:25;101309.00;;;25.80
71463;BMP180;59266;52.608;13.260;2023-08-12T10:17:52;101306.00;;;26.00
71463;BMP180;59266;52.608;13.260;2023-08-12T10:20:23;101307.00;;;26.40
71463;BMP180;59266;52.608;13.260;2023-08-12T10:22:51;101306.00;;;26.70
71463;BMP180;59266;52.608;13.260;2023-08-12T10:25:19;101311.00;;;26.50
71463;BMP180;59266;52.608;13.260;2023-08-12T10:27:48;101304.00;;;26.80
71463;BMP180;59266;52.608;13.260;2023-08-12T10:30:15;101281.00;;;27.10
71463;BMP180;59266;52.608;13.260;2023-08-12T10:32:45;101286.00;;;27.70
71463;BMP180;59266;52.608;13.260;2023-08-12T10:35:15;101286.00;;;27.60
71463;BMP180;59266;52.608;13.260;2023-08-12T10:37:42;101273.00;;;27.70
71463;BMP180;59266;52.608;13.260;2023-08-12T10:40:21;101273.00;;;27.60
71463;BMP180;59266;52.608;13.260;2023-08-12T10:42:50;101269.00;;;28.10
71463;BMP180;59266;52.608;13.260;2023-08-12T10:45:17;101282.00;;;28.00
71463;BMP180;59266;52.608;13.260;2023-08-12T10:50:35;101274.00;;;28.40
71463;BMP180;59266;52.608;13.260;2023-08-12T11:10:18;101282.00;;;28.60
71463;BMP180;59266;52.608;13.260;2023-08-12T11:15:34;101277.00;;;28.80
71463;BMP180;59266;52.608;13.260;2023-08-12T11:18:05;101275.00;;;28.90
71463;BMP180;59266;52.608;13.260;2023-08-12T11:20:36;101279.00;;;29.20
71463;BMP180;59266;52.608;13.260;2023-08-12T11:23:03;101287.00;;;29.50
71463;BMP180;59266;52.608;13.260;2023-08-12T11:25:40;101276.00;;;29.40
71463;BMP180;59266;52.608;13.260;2023-08-12T11:28:08;101276.00;;;29.20
71463;BMP180;59266;52.608;13.260;2023-08-12T11:30:35;101274.00;;;28.80
71463;BMP180;59266;52.608;13.260;2023-08-12T11:33:06;101280.00;;;28.70
71463;BMP180;59266;52.608;13.260;2023-08-12T11:35:39;101285.00;;;28.20
71463;BMP180;59266;52.608;13.260;2023-08-12T11:38:12;101280.00;;;27.80
71463;BMP180;59266;52.608;13.260;2023-08-12T11:40:43;101274.00;;;27.50
71463;BMP180;59266;52.608;13.260;2023-08-12T11:43:11;101288.00;;;27.50
71463;BMP180;59266;52.608;13.260;2023-08-12T11:45:41;101310.00;;;27.30
71463;BMP180;59266;52.608;13.260;2023-08-12T11:48:09;101308.00;;;27.10
71463;BMP180;59266;52.608;13.260;2023-08-12T11:50:36;101303.00;;;27.40
71463;BMP180;59266;52.608;13.260;2023-08-12T11:53:06;101310.00;;;27.60
71463;BMP180;59266;52.608;13.260;2023-08-12T11:55:36;101308.00;;;27.50
71463;BMP180;59266;52.608;13.260;2023-08-12T11:58:11;101317.00;;;27.20
71463;BMP180;59266;52.608;13.260;2023-08-12T12:00:38;101309.00;;;26.90
71463;BMP180;59266;52.608;13.260;2023-08-12T12:03:05;101314.00;;;27.00
71463;BMP180;59266;52.608;13.260;2023-08-12T12:05:38;101313.00;;;27.10
71463;BMP180;59266;52.608;13.260;2023-08-12T12:08:05;101309.00;;;27.00
71463;BMP180;59266;52.608;13.260;2023-08-12T12:10:37;101307.00;;;27.00
71463;BMP180;59266;52.608;13.260;2023-08-12T12:13:05;101304.00;;;27.20
71463;BMP180;59266;52.608;13.260;2023-08-12T12:15:38;101300.00;;;27.20
71463;BMP180;59266;52.608;13.260;2023-08-12T12:18:10;101304.00;;;26.50
71463;BMP180;59266;52.608;13.260;2023-08-12T12:21:01;101297.00;;;26.80
71463;BMP180;59266;52.608;13.260;2023-08-12T12:23:28;101275.00;;;27.00
71463;BMP180;59266;52.608;13.260;2023-08-12T12:26:05;101259.00;;;27.20
71463;BMP180;59266;52.608;13.260;2023-08-12T12:28:33;101262.00;;;27.10
71463;BMP180;59266;52.608;13.260;2023-08-12T12:31:00;101235.00;;;26.70
71463;BMP180;59266;52.608;13.260;2023-08-12T12:33:28;101219.00;;;26.60
71463;BMP180;59266;52.608;13.260;2023-08-12T12:35:55;101232.00;;;26.40
71463;BMP180;59266;52.608;13.260;2023-08-12T12:38:27;101231.00;;;26.40
71463;BMP180;59266;52.608;13.260;2023-08-12T12:40:56;101221.00;;;26.30
71463;BMP180;59266;52.608;13.260;2023-08-12T12:43:26;101217.00;;;26.40
71463;BMP180;59266;52.608;13.260;2023-08-12T12:45:53;101210.00;;;26.50
71463;BMP180;59266;52.608;13.260;2023-08-12T12:48:20;101199.00;;;27.20
71463;BMP180;59266;52.608;13.260;2023-08-12T12:50:47;101171.00;;;27.30
71463;BMP180;59266;52.608;13.260;2023-08-12T12:53:14;101179.00;;;28.10
71463;BMP180;59266;52.608;13.260;2023-08-12T12:55:40;101175.00;;;28.50
71463;BMP180;59266;52.608;13.260;2023-08-12T12:58:07;101182.00;;;28.10
71463;BMP180;59266;52.608;13.260;2023-08-12T13:00:38;101177.00;;;28.20
71463;BMP180;59266;52.608;13.260;2023-08-12T13:03:05;101181.00;;;28.20
71463;BMP180;59266;52.608;13.260;2023-08-12T13:05:32;101172.00;;;28.50
71463;BMP180;59266;52.608;13.260;2023-08-12T13:07:59;101171.00;;;28.60
71463;BMP180;59266;52.608;13.260;2023-08-12T13:10:26;101168.00;;;28.10
71463;BMP180;59266;52.608;13.260;2023-08-12T13:12:54;101160.00;;;28.30
71463;BMP180;59266;52.608;13.260;2023-08-12T13:15:21;101164.00;;;28.50
71463;BMP180;59266;52.608;13.260;2023-08-12T13:17:50;101158.00;;;28.50
71463;BMP180;59266;52.608;13.260;2023-08-12T13:20:17;101145.00;;;28.80
71463;BMP180;59266;52.608;13.260;2023-08-12T13:22:44;101150.00;;;29.20
71463;BMP180;59266;52.608;13.260;2023-08-12T13:25:11;101162.00;;;29.20
71463;BMP180;59266;52.608;13.260;2023-08-12T13:27:41;101161.00;;;29.50
71463;BMP180;59266;52.608;13.260;2023-08-12T13:30:10;101158.00;;;29.50
71463;BMP180;59266;52.608;13.260;2023-08-12T13:32:39;101165.00;;;29.30
71463;BMP180;59266;52.608;13.260;2023-08-12T13:35:06;101156.00;;;29.40
71463;BMP180;59266;52.608;13.260;2023-08-12T13:37:35;101138.00;;;29.50
71463;BMP180;59266;52.608;13.260;2023-08-12T13:40:02;101138.00;;;29.70
71463;BMP180;59266;52.608;13.260;2023-08-12T13:42:31;101136.00;;;29.70
71463;BMP180;59266;52.608;13.260;2023-08-12T13:44:58;101130.00;;;30.10
71463;BMP180;59266;52.608;13.260;2023-08-12T13:47:26;101102.00;;;29.60
71463;BMP180;59266;52.608;13.260;2023-08-12T13:49:54;101115.00;;;30.80
71463;BMP180;59266;52.608;13.260;2023-08-12T13:52:24;101100.00;;;31.30
71463;BMP180;59266;52.608;13.260;2023-08-12T13:54:50;101116.00;;;31.20
71463;BMP180;59266;52.608;13.260;2023-08-12T13:57:17;101124.00;;;31.00
71463;BMP180;59266;52.608;13.260;2023-08-12T13:59:43;101136.00;;;30.20
71463;BMP180;59266;52.608;13.260;2023-08-12T14:02:15;101140.00;;;30.00
71463;BMP180;59266;52.608;13.260;2023-08-12T14:04:42;101134.00;;;29.90
71463;BMP180;59266;52.608;13.260;2023-08-12T14:07:09;101131.00;;;29.60
71463;BMP180;59266;52.608;13.260;2023-08-12T14:09:35;101129.00;;;30.10
71463;BMP180;59266;52.608;13.260;2023-08-12T14:12:02;101130.00;;;30.40
71463;BMP180;59266;52.608;13.260;2023-08-12T14:14:30;101083.00;;;31.30
71463;BMP180;59266;52.608;13.260;2023-08-12T14:16:57;101102.00;;;32.30
71463;BMP180;59266;52.608;13.260;2023-08-12T14:19:25;101124.00;;;32.10
71463;BMP180;59266;52.608;13.260;2023-08-12T14:21:52;101123.00;;;31.70
71463;BMP180;59266;52.608;13.260;2023-08-12T14:24:19;101122.00;;;31.30
71463;BMP180;59266;52.608;13.260;2023-08-12T14:26:46;101122.00;;;30.40
71463;BMP180;59266;52.608;13.260;2023-08-12T14:29:12;101126.00;;;30.10
71463;BMP180;59266;52.608;13.260;2023-08-12T14:31:39;101118.00;;;30.40
71463;BMP180;59266;52.608;13.260;2023-08-12T14:34:06;101118.00;;;29.80